F/V Manathia — FGSL — position and weather

sailwx.info

Track history (hours):
 
Tides and Currents Weather Stations Pressure Air Temp Water Temp Dewpoint Dewpoint Depression Visibility Wind Speed Wind Dir Waves Ship Positions

F/V Manathia

Last reported at 2015-Jul-06 14:29 UTC. Time now 2015-Jul-07 21:58 UTC.
Position N 47°48' W 004°17'.

Length 16 m.

Type: Fishing. MMSI: 228258000.

Date/timePositionNaut miles runAvg speedWind from/ knotsBaromVisibWave heightAir tempDewpointWater temp
2015-Jul-06 14:29N 47°48' W 004°17'8 8.7
2015-Jul-06 13:33N 47°41' W 004°24'  
2015-Jul-03 14:32N 47°48' W 004°17'19 2.3
2015-Jul-03 06:31N 47°39' W 004°42'3 2.6
2015-Jul-03 05:34N 47°37' W 004°42'3 3.0
2015-Jul-03 04:28N 47°36' W 004°37'18 0.5
2015-Jul-01 14:29N 47°48' W 004°17'8 8.2
2015-Jul-01 13:31N 47°41' W 004°24'5 4.5
2015-Jul-01 12:20N 47°38' W 004°30'7 1.9
2015-Jul-01 08:21N 47°36' W 004°41'2 3.0
2015-Jul-01 07:33N 47°36' W 004°38'2 1.4
2015-Jul-01 06:13N 47°36' W 004°40'2 2.7
2015-Jul-01 05:33N 47°36' W 004°38'4 3.2
2015-Jul-01 04:27N 47°36' W 004°33'5 3.9
2015-Jul-01 03:15N 47°38' W 004°26'10 8.5
2015-Jul-01 02:05N 47°46' W 004°19'12 0.7
2015-Jun-30 10:16N 47°39' W 004°32'5 1.9
2015-Jun-30 07:27N 47°34' W 004°29'5 5.3
2015-Jun-30 06:33N 47°31' W 004°23'1 0.5
2015-Jun-30 05:32N 47°31' W 004°23'17 1.2
2015-Jun-29 15:22N 47°48' W 004°17'3 3.8
2015-Jun-29 14:33N 47°45' W 004°19'5 4.9
2015-Jun-29 13:33N 47°41' W 004°24'5 4.0
2015-Jun-29 12:19N 47°38' W 004°30'3 3.6
2015-Jun-29 11:33N 47°39' W 004°34'3 3.2
2015-Jun-29 10:33N 47°39' W 004°38'4 3.5
2015-Jun-29 09:31N 47°39' W 004°44'5 1.8
2015-Jun-29 06:32N 47°44' W 004°42'0 0.4
2015-Jun-29 05:22N 47°45' W 004°42'1 1.2
2015-Jun-29 04:33N 47°45' W 004°43'4 3.5
2015-Jun-29 03:22N 47°45' W 004°37'7 8.2
2015-Jun-29 02:32N 47°46' W 004°27'7 0.9
2015-Jun-28 18:32N 47°48' W 004°17'0 0.0
2015-Jun-26 16:17N 47°48' W 004°17'0 0.0
2015-Jun-26 15:32N 47°48' W 004°17'1 1.5
2015-Jun-26 14:33N 47°46' W 004°18'  
Track history (hours):
 
Tides and Currents Weather Stations Pressure Air Temp Water Temp Dewpoint Dewpoint Depression Visibility Wind Speed Wind Dir Waves Ship Positions

F/V Manathia

Last reported at 2015-Jul-06 14:29 UTC. Time now 2015-Jul-07 21:58 UTC.
Position N 47°48' W 004°17'.

Length 16 m.

Type: Fishing. MMSI: 228258000.

Date/timePositionNaut miles runAvg speedWind from/ knotsBaromVisibWave heightAir tempDewpointWater temp
2015-Jul-06 14:29N 47°48' W 004°17'8 8.7
2015-Jul-06 13:33N 47°41' W 004°24'  
2015-Jul-03 14:32N 47°48' W 004°17'19 2.3
2015-Jul-03 06:31N 47°39' W 004°42'3 2.6
2015-Jul-03 05:34N 47°37' W 004°42'3 3.0
2015-Jul-03 04:28N 47°36' W 004°37'18 0.5
2015-Jul-01 14:29N 47°48' W 004°17'8 8.2
2015-Jul-01 13:31N 47°41' W 004°24'5 4.5
2015-Jul-01 12:20N 47°38' W 004°30'7 1.9
2015-Jul-01 08:21N 47°36' W 004°41'2 3.0
2015-Jul-01 07:33N 47°36' W 004°38'2 1.4
2015-Jul-01 06:13N 47°36' W 004°40'2 2.7
2015-Jul-01 05:33N 47°36' W 004°38'4 3.2
2015-Jul-01 04:27N 47°36' W 004°33'5 3.9
2015-Jul-01 03:15N 47°38' W 004°26'10 8.5
2015-Jul-01 02:05N 47°46' W 004°19'12 0.7
2015-Jun-30 10:16N 47°39' W 004°32'5 1.9
2015-Jun-30 07:27N 47°34' W 004°29'5 5.3
2015-Jun-30 06:33N 47°31' W 004°23'1 0.5
2015-Jun-30 05:32N 47°31' W 004°23'17 1.2
2015-Jun-29 15:22N 47°48' W 004°17'3 3.8
2015-Jun-29 14:33N 47°45' W 004°19'5 4.9
2015-Jun-29 13:33N 47°41' W 004°24'5 4.0
2015-Jun-29 12:19N 47°38' W 004°30'3 3.6
2015-Jun-29 11:33N 47°39' W 004°34'3 3.2
2015-Jun-29 10:33N 47°39' W 004°38'4 3.5
2015-Jun-29 09:31N 47°39' W 004°44'5 1.8
2015-Jun-29 06:32N 47°44' W 004°42'0 0.4
2015-Jun-29 05:22N 47°45' W 004°42'1 1.2
2015-Jun-29 04:33N 47°45' W 004°43'4 3.5
2015-Jun-29 03:22N 47°45' W 004°37'7 8.2
2015-Jun-29 02:32N 47°46' W 004°27'7 0.9
2015-Jun-28 18:32N 47°48' W 004°17'0 0.0
2015-Jun-26 16:17N 47°48' W 004°17'0 0.0
2015-Jun-26 15:32N 47°48' W 004°17'1 1.5
2015-Jun-26 14:33N 47°46' W 004°18'  

Dump ship's entire track history